AirNav   Bose Proflight Series 2 Wireless viation Headset
 
 1375 users online  

48K Ness City Municipal Airport
Ness City, Kansas, USA

GOING TO NESS CITY?


FAA INFORMATION EFFECTIVE 10 OCTOBER 2019

Location

FAA Identifier: 48K
Lat/Long: 38-28-25.5250N 099-54-32.8280W
38-28.425417N 099-54.547133W
38.4737569,-99.9091189
(estimated)
Elevation: 2321.6 ft. / 707.6 m (surveyed)
Variation: 08E (1990)
From city: 1 mile N of NESS CITY, KS
Time zone: UTC -5 (UTC -6 during Standard Time)
Zip code: 67560

Airport Operations

Airport use: Open to the public
Activation date: 09/1955
Control tower: no
ARTCC: KANSAS CITY CENTER
FSS: WICHITA FLIGHT SERVICE STATION
NOTAMs facility: ICT (NOTAM-D service available)
Attendance: UNATNDD
Wind indicator: lighted
Segmented circle: no
Lights: ACTVT PAPI RWY 17 & 35 - CTAF.
Beacon: white-green (lighted land airport)
Operates sunset to sunrise.

Airport Communications

CTAF: 122.9

Nearby radio navigation aids

VOR radial/distance  VOR name  Freq  Var
HYSr223/37.2HAYS VORTAC110.4010E
DDCr359/37.7DODGE CITY VORTAC108.2008E

Airport Services

Parking: tiedowns
Airframe service: NONE
Powerplant service: NONE

Runway Information

Runway 17/35

Dimensions: 4000 x 60 ft. / 1219 x 18 m
Surface: asphalt, in fair condition
Runway edge lights: low intensity
Gradient: N
RUNWAY 17  RUNWAY 35
Latitude: 38-28.754870N38-28.095953N
Longitude: 099-54.547808W099-54.546447W
Elevation: 2321.6 ft.2287.6 ft.
Traffic pattern: leftleft
Runway heading: 172 magnetic, 180 true352 magnetic, 360 true
Markings: nonprecision, in fair conditionnonprecision, in fair condition
Visual slope indicator: 2-light PAPI on left (3.00 degrees glide path)2-light PAPI on left (3.00 degrees glide path)
Runway end identifier lights: yesyes
Touchdown point: yes, no lightsyes, no lights
Obstructions: 41 ft. pline, marked, 1500 ft. from runway, 31:1 slope to clear28 ft. bldg, lighted, 200 ft. from runway, 50 ft. left of centerline

Airport Ownership and Management from official FAA records

Ownership: Publicly-owned
Owner: CITY OF NESS CITY
BOX 419
NESS CITY, KS 67560
Phone 785-798-2229
Manager: EDDIE WASSINGER
CITY BLDG
NESS CITY, KS 67560
Phone 785-798-5355

Airport Operational Statistics

Aircraft based on the field: 2
Single engine airplanes: 2
    
Aircraft operations: avg 77/week *
75% local general aviation
25% transient general aviation
* for 12-month period ending 16 May 2017

Additional Remarks

PUBLIC PHONE AVBL 785-798-2702.
RY EDGES & TWYS SOFT.
RY 35 APCH IS OBSTRUCTED BY BLDGS L & R OF CNTRLN, A LGTD WINDSOCK & ROTG BCN ATOP A HANGAR L OF RY CNTRLN.
FOR CD CTC KANSAS CITY ARTCC AT 913-254-8508.

Instrument Procedures

There are no published instrument procedures at 48K.

Some nearby airports with instrument procedures:

K79 - Jetmore Municipal Airport (29 nm S)
0H1 - Trego Wakeeney Airport (32 nm N)
KHYS - Hays Regional Airport (37 nm NE)
KLQR - Larned-Pawnee County Airport (42 nm E)
KDDC - Dodge City Regional Airport (43 nm S)
 
Loc | Ops | Rwys | IFR | FBO | Links
Com | Nav | Svcs | Stats | Notes

Kansas City Aviation Department
 
Area around 48K (Ness City Municipal Airport)
 
Road maps at: MapQuest Bing Google
 
Aerial photo
WARNING: Photo may not be current or correct
Aerial photo of 48K (Ness City Municipal Airport)
Do you have a better or more recent aerial photo of Ness City Municipal Airport that you would like to share? If so, please send us your photo.

 
Sectional chart

 
Airport distance calculator
Flying to Ness City Municipal Airport? Find the distance to fly.

From to 48K

Sunrise and sunset
Times for 14-Oct-2019
 Local
(UTC-5)
 Zulu
(UTC)
Morning civil twilight07:2212:22
Sunrise07:4912:49
Sunset19:0300:03
Evening civil twilight19:2900:29

Current date and time
Zulu (UTC)  14-Oct-2019 18:04:28
Local (UTC-5)  14-Oct-2019 13:04:28
 
METAR
KHYS 
38nm NE 
141756Z AUTO 16014G21KT 10SM CLR 24/09 A2985 RMK AO2 SLP102 T02390094 10239 20011 58029
KDDC 
43nm S 
141752Z AUTO 19011KT 7SM CLR 23/07 A2986 RMK AO2 SLP095 T02280067 10228 20061 58019
KTQK 
46nm W 
141755Z AUTO 22006KT 10SM CLR 22/04 A2985 RMK AO1 T02210042
KGBD 
50nm E 
141756Z AUTO 16018G27KT 10SM CLR 24/10 A2985 RMK AO2 PK WND 17030/1740 SLP103 T02390100 10239 20033 58026 $
TAF
KHYS 
38nm NE 
141725Z 1418/1518 17009KT P6SM SKC FM150700 29013KT P6SM SKC FM151000 36021G26KT P6SM SKC
KDDC 
43nm S 
141725Z 1418/1518 19009KT P6SM SKC FM151000 01014G22KT P6SM SKC FM151200 01024G34KT P6SM SKC
NOTAMs
Click for the latest NOTAMs
NOTAMs are issued by the DoD/FAA and will open in a separate window not controlled by AirNav.

 

 
 

Would you like to see your business listed on this page?

 If your business provides an interesting product or service to pilots, flight crews, aircraft, or users of the Ness City Municipal Airport, you should consider listing it here.  To start the listing process, click on the button below
 
Add a business
 

Other Pages about Ness City Municipal Airport

Update a link
 
Copyright © AirNav, LLC. All rights reserved. Privacy Policy  Contact